sensor_id;sensor_type;location;lat;lon;timestamp;P1;durP1;ratioP1;P2;durP2;ratioP2
4323;SDS011;2175;51.018;6.994;2022-11-15T00:00:29;14.37;;;9.40;;
4323;SDS011;2175;51.018;6.994;2022-11-15T00:02:55;18.73;;;9.37;;
4323;SDS011;2175;51.018;6.994;2022-11-15T00:05:21;15.40;;;9.97;;
4323;SDS011;2175;51.018;6.994;2022-11-15T00:07:46;14.70;;;9.03;;
4323;SDS011;2175;51.018;6.994;2022-11-15T00:10:12;12.37;;;9.83;;
4323;SDS011;2175;51.018;6.994;2022-11-15T00:12:38;16.60;;;9.70;;
4323;SDS011;2175;51.018;6.994;2022-11-15T00:15:03;13.73;;;9.27;;
4323;SDS011;2175;51.018;6.994;2022-11-15T00:17:29;15.57;;;10.70;;
4323;SDS011;2175;51.018;6.994;2022-11-15T00:19:55;10.70;;;8.50;;
4323;SDS011;2175;51.018;6.994;2022-11-15T00:22:21;14.47;;;9.47;;
4323;SDS011;2175;51.018;6.994;2022-11-15T00:24:47;11.47;;;9.20;;
4323;SDS011;2175;51.018;6.994;2022-11-15T00:27:12;15.10;;;10.00;;
4323;SDS011;2175;51.018;6.994;2022-11-15T00:29:38;11.43;;;8.90;;
4323;SDS011;2175;51.018;6.994;2022-11-15T00:32:08;14.50;;;9.70;;
4323;SDS011;2175;51.018;6.994;2022-11-15T00:34:35;14.50;;;10.37;;
4323;SDS011;2175;51.018;6.994;2022-11-15T00:37:00;14.00;;;9.30;;
4323;SDS011;2175;51.018;6.994;2022-11-15T00:39:26;13.93;;;9.23;;
4323;SDS011;2175;51.018;6.994;2022-11-15T00:41:51;17.80;;;10.33;;
4323;SDS011;2175;51.018;6.994;2022-11-15T00:44:17;12.27;;;9.57;;
4323;SDS011;2175;51.018;6.994;2022-11-15T00:46:43;16.90;;;9.87;;
4323;SDS011;2175;51.018;6.994;2022-11-15T00:49:08;12.43;;;8.53;;
4323;SDS011;2175;51.018;6.994;2022-11-15T00:51:34;15.93;;;9.70;;
4323;SDS011;2175;51.018;6.994;2022-11-15T00:53:59;17.33;;;8.93;;
4323;SDS011;2175;51.018;6.994;2022-11-15T00:56:25;13.93;;;10.20;;
4323;SDS011;2175;51.018;6.994;2022-11-15T00:58:51;15.23;;;9.53;;
4323;SDS011;2175;51.018;6.994;2022-11-15T01:01:17;14.10;;;9.70;;
4323;SDS011;2175;51.018;6.994;2022-11-15T01:03:43;13.30;;;8.83;;
4323;SDS011;2175;51.018;6.994;2022-11-15T01:06:09;16.10;;;9.03;;
4323;SDS011;2175;51.018;6.994;2022-11-15T01:08:35;13.07;;;9.33;;
4323;SDS011;2175;51.018;6.994;2022-11-15T01:11:01;15.77;;;8.93;;
4323;SDS011;2175;51.018;6.994;2022-11-15T01:13:32;11.40;;;9.10;;
4323;SDS011;2175;51.018;6.994;2022-11-15T01:16:05;11.87;;;8.70;;
4323;SDS011;2175;51.018;6.994;2022-11-15T01:18:38;13.60;;;9.80;;
4323;SDS011;2175;51.018;6.994;2022-11-15T01:21:05;15.00;;;9.70;;
4323;SDS011;2175;51.018;6.994;2022-11-15T01:23:35;14.93;;;9.03;;
4323;SDS011;2175;51.018;6.994;2022-11-15T01:26:02;13.63;;;10.30;;
4323;SDS011;2175;51.018;6.994;2022-11-15T01:28:30;14.90;;;10.43;;
4323;SDS011;2175;51.018;6.994;2022-11-15T01:30:58;12.70;;;9.10;;
4323;SDS011;2175;51.018;6.994;2022-11-15T01:33:25;13.13;;;9.30;;
4323;SDS011;2175;51.018;6.994;2022-11-15T01:35:50;14.10;;;10.17;;
4323;SDS011;2175;51.018;6.994;2022-11-15T01:38:16;13.10;;;9.30;;
4323;SDS011;2175;51.018;6.994;2022-11-15T01:40:41;15.87;;;9.90;;
4323;SDS011;2175;51.018;6.994;2022-11-15T01:45:51;14.30;;;9.47;;
4323;SDS011;2175;51.018;6.994;2022-11-15T01:48:20;13.10;;;10.17;;
4323;SDS011;2175;51.018;6.994;2022-11-15T01:50:49;13.73;;;8.90;;
4323;SDS011;2175;51.018;6.994;2022-11-15T01:53:16;13.43;;;9.40;;
4323;SDS011;2175;51.018;6.994;2022-11-15T01:55:44;16.37;;;9.83;;
4323;SDS011;2175;51.018;6.994;2022-11-15T01:58:09;12.77;;;9.30;;
4323;SDS011;2175;51.018;6.994;2022-11-15T02:00:35;15.50;;;9.33;;
4323;SDS011;2175;51.018;6.994;2022-11-15T02:03:01;15.90;;;9.87;;
4323;SDS011;2175;51.018;6.994;2022-11-15T02:05:27;14.73;;;10.13;;
4323;SDS011;2175;51.018;6.994;2022-11-15T02:07:55;15.60;;;9.73;;
4323;SDS011;2175;51.018;6.994;2022-11-15T02:10:22;12.23;;;9.60;;
4323;SDS011;2175;51.018;6.994;2022-11-15T02:12:49;13.37;;;9.03;;
4323;SDS011;2175;51.018;6.994;2022-11-15T02:15:15;12.37;;;8.97;;
4323;SDS011;2175;51.018;6.994;2022-11-15T02:34:56;14.43;;;8.90;;
4323;SDS011;2175;51.018;6.994;2022-11-15T02:42:44;15.20;;;9.27;;
4323;SDS011;2175;51.018;6.994;2022-11-15T02:45:52;17.73;;;9.63;;
4323;SDS011;2175;51.018;6.994;2022-11-15T02:48:25;10.70;;;8.60;;
4323;SDS011;2175;51.018;6.994;2022-11-15T02:50:51;11.73;;;8.30;;
4323;SDS011;2175;51.018;6.994;2022-11-15T02:53:17;13.43;;;8.97;;
4323;SDS011;2175;51.018;6.994;2022-11-15T02:55:46;14.70;;;9.70;;
4323;SDS011;2175;51.018;6.994;2022-11-15T02:58:23;12.23;;;9.33;;
4323;SDS011;2175;51.018;6.994;2022-11-15T03:00:58;13.73;;;8.63;;
4323;SDS011;2175;51.018;6.994;2022-11-15T03:11:56;11.97;;;8.47;;
4323;SDS011;2175;51.018;6.994;2022-11-15T03:14:30;11.37;;;9.03;;
4323;SDS011;2175;51.018;6.994;2022-11-15T03:20:01;15.87;;;9.10;;
4323;SDS011;2175;51.018;6.994;2022-11-15T03:22:30;11.97;;;8.93;;
4323;SDS011;2175;51.018;6.994;2022-11-15T03:25:02;9.87;;;7.60;;
4323;SDS011;2175;51.018;6.994;2022-11-15T03:27:31;13.17;;;9.03;;
4323;SDS011;2175;51.018;6.994;2022-11-15T03:30:04;13.80;;;8.00;;
4323;SDS011;2175;51.018;6.994;2022-11-15T03:32:34;12.00;;;9.20;;
4323;SDS011;2175;51.018;6.994;2022-11-15T03:35:12;12.00;;;8.20;;
4323;SDS011;2175;51.018;6.994;2022-11-15T03:40:40;12.83;;;8.10;;
4323;SDS011;2175;51.018;6.994;2022-11-15T03:45:51;13.10;;;8.67;;
4323;SDS011;2175;51.018;6.994;2022-11-15T03:48:26;11.77;;;8.50;;
4323;SDS011;2175;51.018;6.994;2022-11-15T03:50:58;13.67;;;8.33;;
4323;SDS011;2175;51.018;6.994;2022-11-15T03:53:24;12.50;;;7.80;;
4323;SDS011;2175;51.018;6.994;2022-11-15T03:55:50;10.13;;;7.60;;
4323;SDS011;2175;51.018;6.994;2022-11-15T03:58:15;11.57;;;7.47;;
4323;SDS011;2175;51.018;6.994;2022-11-15T04:00:41;10.80;;;7.77;;
4323;SDS011;2175;51.018;6.994;2022-11-15T04:03:06;11.80;;;8.00;;
4323;SDS011;2175;51.018;6.994;2022-11-15T04:05:32;11.33;;;8.17;;
4323;SDS011;2175;51.018;6.994;2022-11-15T04:07:58;10.17;;;8.10;;
4323;SDS011;2175;51.018;6.994;2022-11-15T04:10:24;10.77;;;7.17;;
4323;SDS011;2175;51.018;6.994;2022-11-15T04:12:49;13.80;;;7.67;;
4323;SDS011;2175;51.018;6.994;2022-11-15T04:15:19;10.23;;;8.10;;
4323;SDS011;2175;51.018;6.994;2022-11-15T04:17:47;9.50;;;7.07;;
4323;SDS011;2175;51.018;6.994;2022-11-15T04:20:22;10.03;;;8.03;;
4323;SDS011;2175;51.018;6.994;2022-11-15T04:23:12;9.60;;;8.07;;
4323;SDS011;2175;51.018;6.994;2022-11-15T04:26:12;10.77;;;7.30;;
4323;SDS011;2175;51.018;6.994;2022-11-15T04:28:41;12.40;;;7.80;;
4323;SDS011;2175;51.018;6.994;2022-11-15T04:31:25;14.80;;;8.17;;
4323;SDS011;2175;51.018;6.994;2022-11-15T04:33:51;10.67;;;7.70;;
4323;SDS011;2175;51.018;6.994;2022-11-15T04:36:17;11.00;;;7.63;;
4323;SDS011;2175;51.018;6.994;2022-11-15T04:39:02;12.13;;;7.90;;
4323;SDS011;2175;51.018;6.994;2022-11-15T04:41:28;9.93;;;8.07;;
4323;SDS011;2175;51.018;6.994;2022-11-15T04:43:54;9.17;;;7.63;;
4323;SDS011;2175;51.018;6.994;2022-11-15T04:46:20;11.20;;;8.27;;
4323;SDS011;2175;51.018;6.994;2022-11-15T04:48:46;10.10;;;8.53;;
4323;SDS011;2175;51.018;6.994;2022-11-15T04:51:11;10.77;;;7.73;;
4323;SDS011;2175;51.018;6.994;2022-11-15T04:53:37;10.60;;;8.93;;
4323;SDS011;2175;51.018;6.994;2022-11-15T04:56:02;13.30;;;8.50;;
4323;SDS011;2175;51.018;6.994;2022-11-15T04:58:28;11.93;;;8.37;;
4323;SDS011;2175;51.018;6.994;2022-11-15T05:00:54;9.60;;;8.20;;
4323;SDS011;2175;51.018;6.994;2022-11-15T05:03:19;8.97;;;7.67;;
4323;SDS011;2175;51.018;6.994;2022-11-15T05:06:03;9.17;;;7.97;;
4323;SDS011;2175;51.018;6.994;2022-11-15T05:08:30;8.57;;;7.50;;
4323;SDS011;2175;51.018;6.994;2022-11-15T05:10:55;9.13;;;7.93;;
4323;SDS011;2175;51.018;6.994;2022-11-15T05:13:21;10.27;;;7.77;;
4323;SDS011;2175;51.018;6.994;2022-11-15T05:15:47;11.70;;;8.00;;
4323;SDS011;2175;51.018;6.994;2022-11-15T05:18:12;9.47;;;7.97;;
4323;SDS011;2175;51.018;6.994;2022-11-15T05:20:38;9.30;;;7.50;;
4323;SDS011;2175;51.018;6.994;2022-11-15T05:23:04;8.60;;;6.80;;
4323;SDS011;2175;51.018;6.994;2022-11-15T05:25:29;8.10;;;7.07;;
4323;SDS011;2175;51.018;6.994;2022-11-15T05:27:55;10.47;;;7.90;;
4323;SDS011;2175;51.018;6.994;2022-11-15T05:30:20;9.13;;;7.87;;
4323;SDS011;2175;51.018;6.994;2022-11-15T05:32:46;13.20;;;7.90;;
4323;SDS011;2175;51.018;6.994;2022-11-15T05:35:14;9.53;;;7.27;;
4323;SDS011;2175;51.018;6.994;2022-11-15T05:37:54;10.57;;;7.47;;
4323;SDS011;2175;51.018;6.994;2022-11-15T05:40:20;9.17;;;7.80;;
4323;SDS011;2175;51.018;6.994;2022-11-15T05:42:46;9.10;;;7.57;;
4323;SDS011;2175;51.018;6.994;2022-11-15T05:45:12;9.20;;;6.70;;
4323;SDS011;2175;51.018;6.994;2022-11-15T05:47:40;8.90;;;6.97;;
4323;SDS011;2175;51.018;6.994;2022-11-15T05:50:06;8.97;;;6.90;;
4323;SDS011;2175;51.018;6.994;2022-11-15T05:52:33;9.40;;;7.07;;
4323;SDS011;2175;51.018;6.994;2022-11-15T05:55:02;9.90;;;6.50;;
4323;SDS011;2175;51.018;6.994;2022-11-15T05:57:30;8.83;;;6.83;;
4323;SDS011;2175;51.018;6.994;2022-11-15T05:59:56;8.17;;;6.83;;
4323;SDS011;2175;51.018;6.994;2022-11-15T06:02:21;8.07;;;7.00;;
4323;SDS011;2175;51.018;6.994;2022-11-15T06:04:47;8.60;;;6.50;;
4323;SDS011;2175;51.018;6.994;2022-11-15T06:07:13;8.37;;;6.30;;
4323;SDS011;2175;51.018;6.994;2022-11-15T06:09:38;8.10;;;5.83;;
4323;SDS011;2175;51.018;6.994;2022-11-15T06:12:04;8.60;;;6.30;;
4323;SDS011;2175;51.018;6.994;2022-11-15T06:14:30;10.00;;;6.57;;
4323;SDS011;2175;51.018;6.994;2022-11-15T06:16:55;6.97;;;6.27;;
4323;SDS011;2175;51.018;6.994;2022-11-15T06:19:21;9.60;;;6.83;;
4323;SDS011;2175;51.018;6.994;2022-11-15T06:21:47;8.93;;;6.90;;
4323;SDS011;2175;51.018;6.994;2022-11-15T06:24:12;9.03;;;7.03;;
4323;SDS011;2175;51.018;6.994;2022-11-15T06:26:38;9.07;;;6.63;;
4323;SDS011;2175;51.018;6.994;2022-11-15T06:29:04;8.53;;;6.70;;
4323;SDS011;2175;51.018;6.994;2022-11-15T06:31:30;10.73;;;6.47;;
4323;SDS011;2175;51.018;6.994;2022-11-15T06:33:56;7.43;;;5.97;;
4323;SDS011;2175;51.018;6.994;2022-11-15T06:36:22;8.77;;;6.10;;
4323;SDS011;2175;51.018;6.994;2022-11-15T06:38:48;9.13;;;7.00;;
4323;SDS011;2175;51.018;6.994;2022-11-15T06:41:14;7.97;;;6.03;;
4323;SDS011;2175;51.018;6.994;2022-11-15T06:43:40;7.73;;;5.90;;
4323;SDS011;2175;51.018;6.994;2022-11-15T06:46:06;9.70;;;6.10;;
4323;SDS011;2175;51.018;6.994;2022-11-15T06:48:32;7.30;;;5.60;;
4323;SDS011;2175;51.018;6.994;2022-11-15T06:50:59;8.67;;;6.50;;
4323;SDS011;2175;51.018;6.994;2022-11-15T06:53:26;8.93;;;5.87;;
4323;SDS011;2175;51.018;6.994;2022-11-15T06:55:52;7.70;;;5.30;;
4323;SDS011;2175;51.018;6.994;2022-11-15T06:58:18;7.00;;;5.30;;
4323;SDS011;2175;51.018;6.994;2022-11-15T07:00:45;6.17;;;5.17;;
4323;SDS011;2175;51.018;6.994;2022-11-15T07:03:11;6.00;;;5.10;;
4323;SDS011;2175;51.018;6.994;2022-11-15T07:05:36;8.30;;;5.77;;
4323;SDS011;2175;51.018;6.994;2022-11-15T07:08:02;8.33;;;5.60;;
4323;SDS011;2175;51.018;6.994;2022-11-15T07:10:28;6.30;;;4.93;;
4323;SDS011;2175;51.018;6.994;2022-11-15T07:12:54;9.47;;;6.10;;
4323;SDS011;2175;51.018;6.994;2022-11-15T07:15:22;8.20;;;5.60;;
4323;SDS011;2175;51.018;6.994;2022-11-15T07:17:49;7.40;;;5.33;;
4323;SDS011;2175;51.018;6.994;2022-11-15T07:20:15;7.50;;;5.43;;
4323;SDS011;2175;51.018;6.994;2022-11-15T07:22:41;7.17;;;5.57;;
4323;SDS011;2175;51.018;6.994;2022-11-15T07:25:08;8.33;;;5.50;;
4323;SDS011;2175;51.018;6.994;2022-11-15T07:27:34;8.30;;;5.90;;
4323;SDS011;2175;51.018;6.994;2022-11-15T07:30:00;6.83;;;4.90;;
4323;SDS011;2175;51.018;6.994;2022-11-15T07:32:26;7.00;;;5.47;;
4323;SDS011;2175;51.018;6.994;2022-11-15T07:34:51;6.43;;;5.57;;
4323;SDS011;2175;51.018;6.994;2022-11-15T07:37:17;6.57;;;4.80;;
4323;SDS011;2175;51.018;6.994;2022-11-15T07:39:43;6.80;;;5.37;;
4323;SDS011;2175;51.018;6.994;2022-11-15T07:42:09;7.50;;;5.83;;
4323;SDS011;2175;51.018;6.994;2022-11-15T07:44:54;6.37;;;5.27;;
4323;SDS011;2175;51.018;6.994;2022-11-15T07:47:19;7.10;;;5.13;;
4323;SDS011;2175;51.018;6.994;2022-11-15T07:49:45;11.30;;;5.50;;
4323;SDS011;2175;51.018;6.994;2022-11-15T07:52:12;6.10;;;5.10;;
4323;SDS011;2175;51.018;6.994;2022-11-15T07:54:38;6.87;;;5.20;;
4323;SDS011;2175;51.018;6.994;2022-11-15T07:57:04;7.47;;;5.33;;
4323;SDS011;2175;51.018;6.994;2022-11-15T07:59:30;5.73;;;4.83;;
4323;SDS011;2175;51.018;6.994;2022-11-15T08:01:56;5.33;;;4.47;;
4323;SDS011;2175;51.018;6.994;2022-11-15T08:04:21;6.23;;;4.30;;
4323;SDS011;2175;51.018;6.994;2022-11-15T08:06:47;7.30;;;5.60;;
4323;SDS011;2175;51.018;6.994;2022-11-15T08:09:13;6.10;;;4.47;;
4323;SDS011;2175;51.018;6.994;2022-11-15T08:11:38;6.10;;;4.50;;
4323;SDS011;2175;51.018;6.994;2022-11-15T08:14:04;8.70;;;6.20;;
4323;SDS011;2175;51.018;6.994;2022-11-15T08:16:30;6.90;;;5.30;;
4323;SDS011;2175;51.018;6.994;2022-11-15T08:18:56;10.47;;;5.40;;
4323;SDS011;2175;51.018;6.994;2022-11-15T08:21:21;9.63;;;5.17;;
4323;SDS011;2175;51.018;6.994;2022-11-15T08:23:47;9.97;;;6.40;;
4323;SDS011;2175;51.018;6.994;2022-11-15T08:26:13;5.73;;;4.40;;
4323;SDS011;2175;51.018;6.994;2022-11-15T08:28:39;6.30;;;4.53;;
4323;SDS011;2175;51.018;6.994;2022-11-15T08:31:05;5.60;;;4.60;;
4323;SDS011;2175;51.018;6.994;2022-11-15T08:33:31;7.53;;;5.10;;
4323;SDS011;2175;51.018;6.994;2022-11-15T08:35:58;6.60;;;4.30;;
4323;SDS011;2175;51.018;6.994;2022-11-15T08:38:25;7.33;;;4.30;;
4323;SDS011;2175;51.018;6.994;2022-11-15T08:40:53;6.47;;;4.70;;
4323;SDS011;2175;51.018;6.994;2022-11-15T08:43:24;8.23;;;4.60;;
4323;SDS011;2175;51.018;6.994;2022-11-15T08:45:50;6.70;;;4.37;;
4323;SDS011;2175;51.018;6.994;2022-11-15T08:48:16;7.57;;;4.30;;
4323;SDS011;2175;51.018;6.994;2022-11-15T08:50:41;6.10;;;3.90;;
4323;SDS011;2175;51.018;6.994;2022-11-15T08:53:08;6.80;;;3.87;;
4323;SDS011;2175;51.018;6.994;2022-11-15T08:55:38;5.27;;;3.90;;
4323;SDS011;2175;51.018;6.994;2022-11-15T08:58:04;4.83;;;3.67;;
4323;SDS011;2175;51.018;6.994;2022-11-15T09:00:30;6.67;;;3.87;;
4323;SDS011;2175;51.018;6.994;2022-11-15T09:02:56;6.27;;;3.63;;
4323;SDS011;2175;51.018;6.994;2022-11-15T09:05:22;8.13;;;3.47;;
4323;SDS011;2175;51.018;6.994;2022-11-15T09:07:47;5.13;;;3.53;;
4323;SDS011;2175;51.018;6.994;2022-11-15T09:10:19;9.90;;;3.67;;
4323;SDS011;2175;51.018;6.994;2022-11-15T09:12:44;7.10;;;3.33;;
4323;SDS011;2175;51.018;6.994;2022-11-15T09:15:14;6.57;;;2.77;;
4323;SDS011;2175;51.018;6.994;2022-11-15T09:17:40;7.47;;;3.07;;
4323;SDS011;2175;51.018;6.994;2022-11-15T09:20:06;7.10;;;2.87;;
4323;SDS011;2175;51.018;6.994;2022-11-15T09:22:33;8.50;;;2.93;;
4323;SDS011;2175;51.018;6.994;2022-11-15T09:24:59;6.30;;;2.90;;
4323;SDS011;2175;51.018;6.994;2022-11-15T09:27:31;6.17;;;2.93;;
4323;SDS011;2175;51.018;6.994;2022-11-15T09:29:57;6.50;;;2.80;;
4323;SDS011;2175;51.018;6.994;2022-11-15T09:32:22;7.30;;;2.60;;
4323;SDS011;2175;51.018;6.994;2022-11-15T09:34:51;3.90;;;2.50;;
4323;SDS011;2175;51.018;6.994;2022-11-15T09:37:17;3.43;;;2.40;;
4323;SDS011;2175;51.018;6.994;2022-11-15T09:39:42;5.07;;;2.60;;
4323;SDS011;2175;51.018;6.994;2022-11-15T09:50:14;4.40;;;2.27;;
4323;SDS011;2175;51.018;6.994;2022-11-15T09:52:43;4.23;;;2.50;;
4323;SDS011;2175;51.018;6.994;2022-11-15T09:55:10;6.30;;;2.30;;
4323;SDS011;2175;51.018;6.994;2022-11-15T09:57:49;3.47;;;1.90;;
4323;SDS011;2175;51.018;6.994;2022-11-15T10:00:28;5.73;;;2.73;;
4323;SDS011;2175;51.018;6.994;2022-11-15T10:05:38;7.93;;;2.20;;
4323;SDS011;2175;51.018;6.994;2022-11-15T10:10:51;7.37;;;2.80;;
4323;SDS011;2175;51.018;6.994;2022-11-15T10:24:39;4.53;;;2.10;;
4323;SDS011;2175;51.018;6.994;2022-11-15T10:27:14;3.93;;;2.20;;
4323;SDS011;2175;51.018;6.994;2022-11-15T10:29:42;8.03;;;2.00;;
4323;SDS011;2175;51.018;6.994;2022-11-15T10:32:18;10.47;;;2.33;;
4323;SDS011;2175;51.018;6.994;2022-11-15T10:34:47;6.30;;;2.27;;
4323;SDS011;2175;51.018;6.994;2022-11-15T10:37:14;3.40;;;1.80;;
4323;SDS011;2175;51.018;6.994;2022-11-15T10:39:39;3.63;;;1.73;;
4323;SDS011;2175;51.018;6.994;2022-11-15T10:42:15;3.53;;;1.90;;
4323;SDS011;2175;51.018;6.994;2022-11-15T10:44:42;3.67;;;1.57;;
4323;SDS011;2175;51.018;6.994;2022-11-15T10:47:20;2.33;;;1.50;;
4323;SDS011;2175;51.018;6.994;2022-11-15T10:49:57;6.50;;;1.60;;
4323;SDS011;2175;51.018;6.994;2022-11-15T10:52:24;4.63;;;1.40;;
4323;SDS011;2175;51.018;6.994;2022-11-15T10:55:01;7.33;;;1.73;;
4323;SDS011;2175;51.018;6.994;2022-11-15T10:57:52;3.53;;;1.20;;
4323;SDS011;2175;51.018;6.994;2022-11-15T11:02:55;2.73;;;1.60;;
4323;SDS011;2175;51.018;6.994;2022-11-15T11:07:59;4.87;;;1.80;;
4323;SDS011;2175;51.018;6.994;2022-11-15T11:10:27;3.50;;;1.50;;
4323;SDS011;2175;51.018;6.994;2022-11-15T11:12:53;5.80;;;1.80;;
4323;SDS011;2175;51.018;6.994;2022-11-15T11:15:19;4.33;;;1.70;;
4323;SDS011;2175;51.018;6.994;2022-11-15T11:18:01;3.40;;;1.30;;
4323;SDS011;2175;51.018;6.994;2022-11-15T11:20:54;6.53;;;1.70;;
4323;SDS011;2175;51.018;6.994;2022-11-15T11:23:38;3.60;;;1.57;;
4323;SDS011;2175;51.018;6.994;2022-11-15T11:31:48;3.53;;;1.33;;
4323;SDS011;2175;51.018;6.994;2022-11-15T11:37:36;5.00;;;1.90;;
4323;SDS011;2175;51.018;6.994;2022-11-15T11:40:59;3.70;;;1.30;;
4323;SDS011;2175;51.018;6.994;2022-11-15T11:46:21;3.37;;;1.77;;
4323;SDS011;2175;51.018;6.994;2022-11-15T11:49:10;4.47;;;1.50;;
4323;SDS011;2175;51.018;6.994;2022-11-15T11:51:51;4.83;;;1.87;;
4323;SDS011;2175;51.018;6.994;2022-11-15T11:57:17;4.60;;;1.53;;
4323;SDS011;2175;51.018;6.994;2022-11-15T12:03:02;2.40;;;1.60;;
4323;SDS011;2175;51.018;6.994;2022-11-15T12:05:41;4.67;;;1.80;;
4323;SDS011;2175;51.018;6.994;2022-11-15T12:17:10;4.07;;;1.40;;
4323;SDS011;2175;51.018;6.994;2022-11-15T12:19:36;4.53;;;1.70;;
4323;SDS011;2175;51.018;6.994;2022-11-15T12:22:22;6.63;;;2.00;;
4323;SDS011;2175;51.018;6.994;2022-11-15T12:25:00;5.70;;;1.60;;
4323;SDS011;2175;51.018;6.994;2022-11-15T12:27:49;4.37;;;1.60;;
4323;SDS011;2175;51.018;6.994;2022-11-15T12:30:19;4.57;;;1.70;;
4323;SDS011;2175;51.018;6.994;2022-11-15T12:33:00;3.70;;;2.03;;
4323;SDS011;2175;51.018;6.994;2022-11-15T12:35:27;5.53;;;1.93;;
4323;SDS011;2175;51.018;6.994;2022-11-15T12:37:55;4.70;;;1.50;;
4323;SDS011;2175;51.018;6.994;2022-11-15T12:40:22;6.80;;;1.70;;
4323;SDS011;2175;51.018;6.994;2022-11-15T12:45:39;4.67;;;1.60;;
4323;SDS011;2175;51.018;6.994;2022-11-15T12:53:26;11.90;;;1.60;;
4323;SDS011;2175;51.018;6.994;2022-11-15T12:56:09;5.07;;;1.60;;
4323;SDS011;2175;51.018;6.994;2022-11-15T13:06:41;7.43;;;1.90;;
4323;SDS011;2175;51.018;6.994;2022-11-15T13:12:07;7.13;;;1.90;;
4323;SDS011;2175;51.018;6.994;2022-11-15T13:17:02;4.73;;;1.93;;
4323;SDS011;2175;51.018;6.994;2022-11-15T13:19:48;5.10;;;2.10;;
4323;SDS011;2175;51.018;6.994;2022-11-15T13:22:17;3.83;;;1.70;;
4323;SDS011;2175;51.018;6.994;2022-11-15T13:25:02;4.90;;;1.73;;
4323;SDS011;2175;51.018;6.994;2022-11-15T13:27:27;6.67;;;1.80;;
4323;SDS011;2175;51.018;6.994;2022-11-15T13:29:54;7.67;;;1.97;;
4323;SDS011;2175;51.018;6.994;2022-11-15T13:32:19;4.70;;;1.63;;
4323;SDS011;2175;51.018;6.994;2022-11-15T13:34:46;9.20;;;2.30;;
4323;SDS011;2175;51.018;6.994;2022-11-15T13:39:46;4.10;;;2.10;;
4323;SDS011;2175;51.018;6.994;2022-11-15T13:42:16;4.57;;;2.20;;
4323;SDS011;2175;51.018;6.994;2022-11-15T13:44:56;6.70;;;2.73;;
4323;SDS011;2175;51.018;6.994;2022-11-15T13:47:25;5.43;;;2.70;;
4323;SDS011;2175;51.018;6.994;2022-11-15T13:49:52;5.53;;;2.33;;
4323;SDS011;2175;51.018;6.994;2022-11-15T13:52:18;5.50;;;2.60;;
4323;SDS011;2175;51.018;6.994;2022-11-15T13:57:20;5.40;;;3.10;;
4323;SDS011;2175;51.018;6.994;2022-11-15T13:59:55;5.80;;;3.00;;
4323;SDS011;2175;51.018;6.994;2022-11-15T14:02:27;12.77;;;3.33;;
4323;SDS011;2175;51.018;6.994;2022-11-15T14:04:57;6.00;;;3.13;;
4323;SDS011;2175;51.018;6.994;2022-11-15T14:07:27;4.53;;;2.30;;
4323;SDS011;2175;51.018;6.994;2022-11-15T14:09:53;8.77;;;3.10;;
4323;SDS011;2175;51.018;6.994;2022-11-15T14:12:53;7.10;;;3.10;;
4323;SDS011;2175;51.018;6.994;2022-11-15T14:17:49;7.37;;;3.33;;
4323;SDS011;2175;51.018;6.994;2022-11-15T14:20:28;4.33;;;2.67;;
4323;SDS011;2175;51.018;6.994;2022-11-15T14:22:58;5.13;;;2.70;;
4323;SDS011;2175;51.018;6.994;2022-11-15T14:25:35;4.63;;;2.93;;
4323;SDS011;2175;51.018;6.994;2022-11-15T14:30:55;7.20;;;2.90;;
4323;SDS011;2175;51.018;6.994;2022-11-15T14:33:30;4.43;;;2.57;;
4323;SDS011;2175;51.018;6.994;2022-11-15T14:35:58;5.30;;;2.73;;
4323;SDS011;2175;51.018;6.994;2022-11-15T14:38:35;6.07;;;2.70;;
4323;SDS011;2175;51.018;6.994;2022-11-15T14:41:00;5.43;;;2.57;;
4323;SDS011;2175;51.018;6.994;2022-11-15T14:43:26;5.40;;;2.67;;
4323;SDS011;2175;51.018;6.994;2022-11-15T14:45:52;6.73;;;3.30;;
4323;SDS011;2175;51.018;6.994;2022-11-15T14:48:17;4.77;;;2.80;;
4323;SDS011;2175;51.018;6.994;2022-11-15T14:50:43;5.80;;;3.03;;
4323;SDS011;2175;51.018;6.994;2022-11-15T14:53:13;3.53;;;2.30;;
4323;SDS011;2175;51.018;6.994;2022-11-15T14:55:41;4.60;;;2.80;;
4323;SDS011;2175;51.018;6.994;2022-11-15T14:58:07;4.90;;;3.00;;
4323;SDS011;2175;51.018;6.994;2022-11-15T15:00:33;5.17;;;2.40;;
4323;SDS011;2175;51.018;6.994;2022-11-15T15:03:00;6.03;;;2.60;;
4323;SDS011;2175;51.018;6.994;2022-11-15T15:08:05;4.77;;;2.80;;
4323;SDS011;2175;51.018;6.994;2022-11-15T15:10:44;6.37;;;3.10;;
4323;SDS011;2175;51.018;6.994;2022-11-15T15:13:21;7.37;;;2.43;;
4323;SDS011;2175;51.018;6.994;2022-11-15T15:15:48;4.30;;;2.90;;
4323;SDS011;2175;51.018;6.994;2022-11-15T15:18:14;6.77;;;2.80;;
4323;SDS011;2175;51.018;6.994;2022-11-15T15:20:41;4.23;;;2.97;;
4323;SDS011;2175;51.018;6.994;2022-11-15T15:23:17;7.40;;;2.77;;
4323;SDS011;2175;51.018;6.994;2022-11-15T15:25:45;4.27;;;2.80;;
4323;SDS011;2175;51.018;6.994;2022-11-15T15:28:12;5.00;;;3.07;;
4323;SDS011;2175;51.018;6.994;2022-11-15T15:30:38;8.17;;;2.93;;
4323;SDS011;2175;51.018;6.994;2022-11-15T15:33:04;3.90;;;2.67;;
4323;SDS011;2175;51.018;6.994;2022-11-15T15:35:31;5.50;;;2.40;;
4323;SDS011;2175;51.018;6.994;2022-11-15T15:37:58;9.57;;;3.23;;
4323;SDS011;2175;51.018;6.994;2022-11-15T15:40:25;6.20;;;2.50;;
4323;SDS011;2175;51.018;6.994;2022-11-15T15:42:52;4.20;;;2.83;;
4323;SDS011;2175;51.018;6.994;2022-11-15T15:45:18;6.27;;;2.33;;
4323;SDS011;2175;51.018;6.994;2022-11-15T15:47:44;5.57;;;2.80;;
4323;SDS011;2175;51.018;6.994;2022-11-15T15:50:29;4.73;;;2.67;;
4323;SDS011;2175;51.018;6.994;2022-11-15T15:52:58;2.80;;;2.30;;
4323;SDS011;2175;51.018;6.994;2022-11-15T15:55:25;3.53;;;2.40;;
4323;SDS011;2175;51.018;6.994;2022-11-15T15:57:51;6.40;;;2.63;;
4323;SDS011;2175;51.018;6.994;2022-11-15T16:00:18;5.10;;;2.73;;
4323;SDS011;2175;51.018;6.994;2022-11-15T16:02:44;4.37;;;2.30;;
4323;SDS011;2175;51.018;6.994;2022-11-15T16:05:11;2.73;;;2.10;;
4323;SDS011;2175;51.018;6.994;2022-11-15T16:07:37;4.33;;;2.40;;
4323;SDS011;2175;51.018;6.994;2022-11-15T16:10:16;5.10;;;2.73;;
4323;SDS011;2175;51.018;6.994;2022-11-15T16:12:47;2.97;;;2.40;;
4323;SDS011;2175;51.018;6.994;2022-11-15T16:15:14;3.27;;;2.47;;
4323;SDS011;2175;51.018;6.994;2022-11-15T16:17:50;3.57;;;2.27;;
4323;SDS011;2175;51.018;6.994;2022-11-15T16:20:31;3.67;;;2.30;;
4323;SDS011;2175;51.018;6.994;2022-11-15T16:23:07;10.50;;;2.77;;
4323;SDS011;2175;51.018;6.994;2022-11-15T16:25:52;4.97;;;2.47;;
4323;SDS011;2175;51.018;6.994;2022-11-15T16:31:02;4.67;;;2.60;;
4323;SDS011;2175;51.018;6.994;2022-11-15T16:33:33;5.93;;;2.50;;
4323;SDS011;2175;51.018;6.994;2022-11-15T16:35:59;4.73;;;2.97;;
4323;SDS011;2175;51.018;6.994;2022-11-15T16:38:25;4.80;;;2.70;;
4323;SDS011;2175;51.018;6.994;2022-11-15T16:40:50;4.37;;;2.60;;
4323;SDS011;2175;51.018;6.994;2022-11-15T16:43:16;6.73;;;2.33;;
4323;SDS011;2175;51.018;6.994;2022-11-15T16:45:42;3.67;;;2.50;;
4323;SDS011;2175;51.018;6.994;2022-11-15T16:48:15;3.67;;;2.60;;
4323;SDS011;2175;51.018;6.994;2022-11-15T16:50:49;4.47;;;2.60;;
4323;SDS011;2175;51.018;6.994;2022-11-15T16:53:18;4.10;;;2.63;;
4323;SDS011;2175;51.018;6.994;2022-11-15T16:55:44;4.53;;;2.80;;
4323;SDS011;2175;51.018;6.994;2022-11-15T16:58:13;5.00;;;2.50;;
4323;SDS011;2175;51.018;6.994;2022-11-15T17:00:38;4.13;;;2.70;;
4323;SDS011;2175;51.018;6.994;2022-11-15T17:03:04;3.10;;;2.30;;
4323;SDS011;2175;51.018;6.994;2022-11-15T17:05:30;4.20;;;2.70;;
4323;SDS011;2175;51.018;6.994;2022-11-15T17:07:55;10.53;;;2.70;;
4323;SDS011;2175;51.018;6.994;2022-11-15T17:10:22;5.70;;;2.60;;
4323;SDS011;2175;51.018;6.994;2022-11-15T17:12:50;5.60;;;2.83;;
4323;SDS011;2175;51.018;6.994;2022-11-15T17:15:16;3.97;;;2.70;;
4323;SDS011;2175;51.018;6.994;2022-11-15T17:17:42;4.03;;;2.40;;
4323;SDS011;2175;51.018;6.994;2022-11-15T17:20:15;6.00;;;2.43;;
4323;SDS011;2175;51.018;6.994;2022-11-15T17:22:42;4.73;;;2.70;;
4323;SDS011;2175;51.018;6.994;2022-11-15T17:25:08;3.67;;;2.53;;
4323;SDS011;2175;51.018;6.994;2022-11-15T17:27:34;6.90;;;2.57;;
4323;SDS011;2175;51.018;6.994;2022-11-15T17:30:00;3.70;;;2.37;;
4323;SDS011;2175;51.018;6.994;2022-11-15T17:32:25;3.53;;;2.40;;
4323;SDS011;2175;51.018;6.994;2022-11-15T17:34:51;5.33;;;2.70;;
4323;SDS011;2175;51.018;6.994;2022-11-15T17:37:16;3.80;;;2.47;;